Armstrong Creek, WI

4:56 AM CDT on August 23, 2019 (GMT -0500)
on the porch at tree height | | Change Station

Elev 1240 ft 45.78 °N, 88.23 °W | Updated 15 seconds ago

Partly Cloudy
Partly Cloudy
77.7 °F
Feels Like 80 °F
N
0
Wind Variable Wind from SSE
Gusts 0.0 mph

Today
High -- | Low -- °F
--% Chance of Precip.
Yesterday
High -- | Low -- °F
Precip. -- in
Pressure 30.23 in
Visibility 0.2 miles
Clouds
Heat Index 80 °F
Dew Point 74 °F
Humidity 88%
Rainfall 0.00 in
Snow Depth Not available.
6:03 AM 7:48 PM
Waning Gibbous, 52% visible
SPECI KIMT 230948Z AUTO 34004KT 1/4SM FG VV001 06/04 A3023 RMK AO2 $
Pressure 30.23 in
Visibility 0.2 miles
Clouds
Heat Index 80 °F
Dew Point 74 °F
Humidity 88%
Rainfall 0.00 in
Snow Depth Not available.
6:03 AM 7:48 PM
Waning Gibbous, 52% visible
SPECI KIMT 230948Z AUTO 34004KT 1/4SM FG VV001 06/04 A3023 RMK AO2 $

Get Severe Weather Alerts

Thanks for signing up!

Be on the lookout for a verification email in your inbox.

You'll start receiving the daily forecast at 6 AM.

×

10-Day Weather Forecast

Almanac

Astronomy

Aug. 23, 2019 Rise Set
Actual Time
Civil Twilight
Nautical Twilight
Astronomical Twilight
Moon
Length of Visible Light
Length of Day
Tomorrow will be .
, % of the Moon is Illuminated

Today's Extremes

State Highs State Lows

Community

WunderPhotos

Category 6

Welcome to Category 6. This is the collective home for Weather Underground's featured writeups by Dr. Jeff Masters (right), Bob Henson (left), Chris Burt, and other regular contributors.

Nearby

Air Quality

  Air Quality AQ Index Pollutant
Not available.

Snow Depth

Station Depth Elevation

Earthquake Activity

City Distance Mag. Time & Date
Minimum magnitude displayed is 2.5.

Coastal Water Temperatures

Place Temperature

Stations

Nearby Weather Stations

Station Location Temp. Windchill Dew Point Humidity Wind Precip. Elev Updated Type
                   

Watches & Warnings

There are currently no watches in effect.